Flight Track Log - Related Links

Times and Time Zones

All times are in EDT time to prevent confusion due to time zone crossing. See the CES5799 flight status page for this flight to view local times or setup timezone preferences in your user account.

Time Position Orientation Groundspeed Altitude Reporting Facility
EDT Latitude Longitude Course Direction KTS MPH feet Rate Location/Type
Sat 09:49:00 PM 30.6800 108.0926 38° Northeast  Level Estimated
Sat 09:50:00 PM 30.7642 108.1764 41° Northeast  Level Estimated
Sat 09:51:00 PM 30.8484 108.2604 41° Northeast  Level Estimated
Sat 09:52:00 PM 30.9325 108.3445 41° Northeast  Level Estimated
Sat 09:53:00 PM 31.0166 108.4287 41° Northeast  Level Estimated
Sat 09:54:00 PM 31.1006 108.5132 41° Northeast  Level Estimated
Sat 09:55:00 PM 31.1846 108.5977 41° Northeast  Level Estimated
Sat 09:56:00 PM 31.2684 108.6824 41° Northeast  Level Estimated
Sat 09:57:00 PM 31.3523 108.7673 41° Northeast  Level Estimated
Sat 09:58:00 PM 31.4361 108.8523 41° Northeast  Level Estimated
Sat 09:59:00 PM 31.5198 108.9375 41° Northeast  Level Estimated
Sat 10:00:00 PM 31.6035 109.0228 41° Northeast  Level Estimated
Sat 10:01:00 PM 31.6871 109.1083 41° Northeast  Level Estimated
Sat 10:02:00 PM 31.7706 109.1939 41° Northeast  Level Estimated
Sat 10:03:00 PM 31.8541 109.2797 41° Northeast  Level Estimated
Sat 10:04:00 PM 31.9376 109.3656 41° Northeast  Level Estimated
Sat 10:05:00 PM 32.0210 109.4517 41° Northeast  Level Estimated
Sat 10:06:00 PM 32.1043 109.5380 41° Northeast  Level Estimated
Sat 10:07:00 PM 32.1876 109.6244 41° Northeast  Level Estimated
Sat 10:08:00 PM 32.2708 109.7109 41° Northeast  Level Estimated
Sat 10:09:00 PM 32.3539 109.7977 41° Northeast  Level Estimated
Sat 10:10:00 PM 32.4370 109.8846 41° Northeast  Level Estimated
Sat 10:11:00 PM 32.5200 109.9716 41° Northeast  Level Estimated
Sat 10:12:00 PM 32.6030 110.0588 42° Northeast  Level Estimated
Sat 10:13:00 PM 32.6859 110.1462 42° Northeast  Level Estimated
Sat 10:14:00 PM 32.7688 110.2337 42° Northeast  Level Estimated
Sat 10:15:00 PM 32.8508 110.3206 42° Northeast  Level Estimated
Sat 10:16:00 PM 32.9328 110.4077 42° Northeast  Level Estimated
Sat 10:17:00 PM 33.0148 110.4950 42° Northeast  Level Estimated
Sat 10:18:00 PM 33.0967 110.5824 42° Northeast  Level Estimated
Sat 10:19:00 PM 33.1785 110.6700 42° Northeast  Level Estimated
Sat 10:20:00 PM 33.2603 110.7577 42° Northeast  Level Estimated
Sat 10:21:00 PM 33.3420 110.8456 42° Northeast  Level Estimated
Sat 10:22:00 PM 33.4236 110.9337 42° Northeast  Level Estimated
Sat 10:23:00 PM 33.5052 111.0219 42° Northeast  Level Estimated
Sat 10:24:00 PM 33.5867 111.1103 42° Northeast  Level Estimated
Sat 10:25:00 PM 33.6682 111.1989 42° Northeast  Level Estimated
Sat 10:26:00 PM 33.7495 111.2876 42° Northeast  Level Estimated
Sat 10:27:00 PM 33.8309 111.3765 42° Northeast  Level Estimated
Sat 10:28:00 PM 33.9121 111.4656 42° Northeast  Level Estimated
Sat 10:29:00 PM 33.9933 111.5548 42° Northeast  Level Estimated
Sat 10:30:00 PM 34.0745 111.6443 42° Northeast  Level Estimated
Sat 10:31:00 PM 34.1555 111.7338 42° Northeast  Level Estimated
Sat 10:32:00 PM 34.2365 111.8236 42° Northeast  Level Estimated
Sat 10:33:00 PM 34.3175 111.9135 43° Northeast  Level Estimated
Sat 10:34:00 PM 34.3983 112.0036 43° Northeast  Level Estimated
Sat 10:35:00 PM 34.4791 112.0939 43° Northeast  Level Estimated
Sat 10:36:00 PM 34.5599 112.1844 43° Northeast  Level Estimated
Sat 10:37:00 PM 34.6406 112.2750 43° Northeast  Level Estimated
Sat 10:38:00 PM 34.7212 112.3658 43° Northeast  Level Estimated
Sat 10:39:00 PM 34.7411 112.3883 43° Northeast  Level Estimated
Sat 10:40:00 PM 34.7411 112.3883 North  Level Estimated
Sat 10:41:00 PM 34.7411 112.3883 North  Level Estimated
Sat 10:42:00 PM 34.7411 112.3883 North  Level Estimated
Sat 10:43:00 PM 34.7411 112.3883 North  Level Estimated
Sat 10:44:00 PM 34.7411 112.3883 North  Level Estimated
Sat 10:45:00 PM 34.7411 112.3883 North  Level Estimated
Sat 10:46:00 PM 34.7411 112.3883 North  Level Estimated
Sat 10:47:00 PM 34.7411 112.3883 North  Level Estimated
Sat 10:48:00 PM 34.7411 112.3883 North  Level Estimated
Sat 10:49:00 PM 34.7411 112.3883 North  Level Estimated
Sat 10:50:00 PM 34.7411 112.3883 North  Level Estimated
Sat 10:51:00 PM 34.7411 112.3883 North  Level Estimated

Login

Don't have an account? Register now (free) for customized features, flight alerts, and more!